createdAt,value
2019-04-21T00:01:55.959Z,102061.80
2019-04-21T00:04:38.116Z,102065.69
2019-04-21T00:07:19.366Z,102059.80
2019-04-21T00:09:58.219Z,102063.84
2019-04-21T00:12:40.562Z,102059.37
2019-04-21T00:14:56.829Z,102058.14
2019-04-21T00:17:19.703Z,102061.41
2019-04-21T00:19:59.424Z,102056.33
2019-04-21T00:22:37.707Z,102057.22
2019-04-21T00:25:16.306Z,102062.62
2019-04-21T00:27:55.216Z,102057.03
2019-04-21T00:30:30.017Z,102058.42
2019-04-21T00:32:54.083Z,102056.87
2019-04-21T00:35:19.577Z,102049.15
2019-04-21T00:38:08.218Z,102044.75
2019-04-21T00:40:50.500Z,102040.57
2019-04-21T00:43:18.120Z,102039.75
2019-04-21T00:45:43.484Z,102044.52
2019-04-21T00:48:29.851Z,102034.95
2019-04-21T00:51:16.225Z,102029.25
2019-04-21T00:53:51.226Z,102029.75
2019-04-21T00:56:36.595Z,102024.98
2019-04-21T00:58:56.155Z,102029.45
2019-04-21T01:01:26.817Z,102028.73
2019-04-21T01:03:57.693Z,102027.50
2019-04-21T01:06:35.229Z,102021.19
2019-04-21T01:09:02.629Z,102016.28
2019-04-21T01:11:37.660Z,102020.84
2019-04-21T01:14:12.077Z,102021.95
2019-04-21T01:16:45.910Z,102024.75
2019-04-21T01:19:17.309Z,102025.47
2019-04-21T01:21:31.251Z,102027.48
2019-04-21T01:24:11.806Z,102028.71
2019-04-21T01:26:47.084Z,102021.95
2019-04-21T01:29:27.999Z,102017.61
2019-04-21T01:32:13.281Z,102018.77
2019-04-21T01:34:39.577Z,102023.63
2019-04-21T01:37:04.613Z,102007.84
2019-04-21T01:39:48.506Z,102013.18
2019-04-21T01:42:18.351Z,102013.55
2019-04-21T01:44:53.196Z,102019.20
2019-04-21T01:47:26.230Z,102025.30
2019-04-21T01:49:52.715Z,102024.16
2019-04-21T01:52:43.862Z,102017.02
2019-04-21T01:55:20.720Z,102011.59
2019-04-21T01:57:49.330Z,102009.32
2019-04-21T02:00:19.066Z,101999.13
2019-04-21T02:03:18.733Z,102002.76
2019-04-21T02:05:37.478Z,102003.44
2019-04-21T02:08:05.106Z,102002.85
2019-04-21T02:10:47.996Z,102003.13
2019-04-21T02:13:11.828Z,102002.40
2019-04-21T02:15:48.817Z,101999.03
2019-04-21T02:18:24.792Z,102005.04
2019-04-21T02:20:45.657Z,102003.08
2019-04-21T02:23:39.469Z,102006.95
2019-04-21T02:26:03.850Z,102007.58
2019-04-21T02:28:50.032Z,102004.97
2019-04-21T02:31:28.645Z,102006.52
2019-04-21T02:34:04.536Z,102010.92
2019-04-21T02:39:12.298Z,102011.00
2019-04-21T02:41:45.630Z,102004.75
2019-04-21T02:44:08.652Z,102003.50
2019-04-21T02:49:22.823Z,101994.04
2019-04-21T02:57:04.871Z,102005.95
2019-04-21T02:59:33.963Z,101999.01
2019-04-21T03:02:22.769Z,101992.18
2019-04-21T03:04:57.283Z,101990.86
2019-04-21T03:07:50.238Z,101990.52
2019-04-21T03:09:59.116Z,101993.38
2019-04-21T03:12:53.062Z,101984.73
2019-04-21T03:15:18.170Z,101981.20
2019-04-21T03:17:49.857Z,101987.16
2019-04-21T03:20:23.706Z,101983.77
2019-04-21T03:22:53.432Z,101984.75
2019-04-21T03:28:11.149Z,101985.89
2019-04-21T03:33:42.198Z,101993.41
2019-04-21T03:40:41.239Z,101990.94
2019-04-21T03:43:21.193Z,101984.84
2019-04-21T03:45:51.454Z,101984.41
2019-04-21T03:48:36.740Z,101982.56
2019-04-21T03:51:07.750Z,101972.45
2019-04-21T03:53:48.077Z,101971.31
2019-04-21T03:56:44.501Z,101981.54
2019-04-21T04:01:50.979Z,101981.84
2019-04-21T04:04:24.487Z,101985.15
2019-04-21T04:09:37.488Z,101987.86
2019-04-21T04:11:50.469Z,101986.05
2019-04-21T04:14:34.210Z,101992.56
2019-04-21T04:17:06.108Z,101993.64
2019-04-21T04:19:38.938Z,101990.89
2019-04-21T04:27:35.249Z,101982.92
2019-04-21T04:29:56.798Z,101982.36
2019-04-21T04:32:23.168Z,101983.84
2019-04-21T04:35:03.423Z,101977.89
2019-04-21T04:37:32.186Z,101980.02
2019-04-21T04:40:10.932Z,101980.30
2019-04-21T04:42:55.928Z,101980.13
2019-04-21T04:45:23.769Z,101977.80
2019-04-21T04:47:50.768Z,101971.72
2019-04-21T04:50:31.644Z,101972.86
2019-04-21T04:53:01.229Z,101976.95
2019-04-21T04:55:33.866Z,101968.91
2019-04-21T05:03:11.711Z,101990.52
2019-04-21T05:11:44.560Z,101979.50
2019-04-21T05:14:06.273Z,101979.31
2019-04-21T05:19:22.643Z,101987.47
2019-04-21T05:21:39.419Z,101984.16
2019-04-21T05:24:08.099Z,101987.16
2019-04-21T05:26:39.244Z,101981.92
2019-04-21T05:29:10.827Z,101980.05
2019-04-21T05:31:58.393Z,101978.11
2019-04-21T05:34:42.675Z,101977.60
2019-04-21T05:37:01.392Z,101979.17
2019-04-21T05:39:36.115Z,101976.47
2019-04-21T05:42:00.789Z,101972.22
2019-04-21T05:44:58.099Z,101965.73
2019-04-21T05:49:56.101Z,101957.97
2019-04-21T05:52:26.528Z,101964.55
2019-04-21T05:55:12.690Z,101969.36
2019-04-21T05:57:43.134Z,101965.70
2019-04-21T06:00:15.645Z,101971.00
2019-04-21T06:02:50.971Z,101969.60
2019-04-21T06:05:34.907Z,101969.20
2019-04-21T06:08:00.426Z,101970.41
2019-04-21T06:10:36.123Z,101972.97
2019-04-21T06:13:13.062Z,101971.25
2019-04-21T06:15:44.596Z,101966.05
2019-04-21T06:18:20.240Z,101964.72
2019-04-21T06:20:51.152Z,101962.87
2019-04-21T06:23:25.733Z,101963.28
2019-04-21T06:26:08.506Z,101968.07
2019-04-21T06:28:35.969Z,101971.09
2019-04-21T06:31:30.282Z,101971.28
2019-04-21T06:33:40.560Z,101973.78
2019-04-21T06:39:01.865Z,101975.11
2019-04-21T06:44:05.103Z,101966.10
2019-04-21T06:51:38.986Z,101959.00
2019-04-21T06:54:16.106Z,101954.16
2019-04-21T06:59:19.208Z,101947.24
2019-04-21T07:02:02.920Z,101949.67
2019-04-21T07:07:00.477Z,101950.05
2019-04-21T07:09:31.896Z,101946.15
2019-04-21T07:12:06.089Z,101947.17
2019-04-21T07:17:22.630Z,101944.24
2019-04-21T07:22:24.516Z,101935.19
2019-04-21T07:24:57.356Z,101937.30
2019-04-21T07:27:30.172Z,101936.65
2019-04-21T07:30:05.261Z,101939.17
2019-04-21T07:32:33.676Z,101939.92
2019-04-21T07:35:08.431Z,101931.23
2019-04-21T07:37:46.183Z,101925.50
2019-04-21T07:40:09.444Z,101933.22
2019-04-21T07:42:46.280Z,101924.11
2019-04-21T07:45:16.859Z,101923.56
2019-04-21T07:48:08.347Z,101915.73
2019-04-21T07:51:04.422Z,101912.56
2019-04-21T07:53:48.255Z,101918.22
2019-04-21T07:55:51.219Z,101908.44
2019-04-21T07:58:51.040Z,101908.19
2019-04-21T08:01:18.070Z,101906.69
2019-04-21T08:03:57.022Z,101909.02
2019-04-21T08:06:29.526Z,101914.92
2019-04-21T08:08:52.883Z,101912.44
2019-04-21T08:11:25.386Z,101915.27
2019-04-21T08:14:00.573Z,101912.95
2019-04-21T08:16:36.793Z,101910.08
2019-04-21T08:19:13.161Z,101908.44
2019-04-21T08:21:55.794Z,101900.46
2019-04-21T08:24:14.499Z,101893.98
2019-04-21T08:26:51.435Z,101888.16
2019-04-21T08:29:38.033Z,101889.64
2019-04-21T08:32:02.602Z,101882.32
2019-04-21T08:34:36.849Z,101877.81
2019-04-21T08:37:04.215Z,101878.95
2019-04-21T08:39:53.549Z,101874.95
2019-04-21T08:42:11.904Z,101873.42
2019-04-21T08:44:47.785Z,101871.77
2019-04-21T08:47:20.706Z,101866.09
2019-04-21T08:49:57.223Z,101866.20
2019-04-21T08:52:37.032Z,101861.20
2019-04-21T08:55:03.737Z,101862.98
2019-04-21T08:58:15.527Z,101857.59
2019-04-21T09:00:56.259Z,101857.70
2019-04-21T09:03:14.628Z,101863.02
2019-04-21T09:05:42.590Z,101855.24
2019-04-21T09:08:20.210Z,101856.67
2019-04-21T09:10:56.009Z,101851.98
2019-04-21T09:13:25.909Z,101844.20
2019-04-21T09:15:59.449Z,101841.98
2019-04-21T09:18:28.418Z,101839.95
2019-04-21T09:21:10.991Z,101834.41
2019-04-21T09:23:38.234Z,101824.33
2019-04-21T09:26:14.030Z,101822.86
2019-04-21T09:28:39.487Z,101816.98
2019-04-21T09:31:06.352Z,101811.80
2019-04-21T09:33:41.297Z,101807.94
2019-04-21T09:36:14.324Z,101797.05
2019-04-21T09:38:45.708Z,101792.39
2019-04-21T09:41:20.856Z,101790.35
2019-04-21T09:43:53.668Z,101786.16
2019-04-21T09:46:23.723Z,101792.58
2019-04-21T09:49:02.006Z,101794.28
2019-04-21T09:51:30.453Z,101781.85
2019-04-21T09:54:09.827Z,101781.56
2019-04-21T09:56:44.876Z,101775.45
2019-04-21T09:59:19.359Z,101775.17
2019-04-21T10:01:56.013Z,101765.47
2019-04-21T10:04:16.960Z,101763.97
2019-04-21T10:06:49.709Z,101758.73
2019-04-21T10:09:21.869Z,101765.23
2019-04-21T10:11:54.843Z,101754.17
2019-04-21T10:14:26.739Z,101758.35
2019-04-21T10:16:59.980Z,101752.90
2019-04-21T10:19:31.962Z,101755.87
2019-04-21T10:22:05.784Z,101745.80
2019-04-21T10:24:38.344Z,101743.08
2019-04-21T10:27:12.231Z,101739.64
2019-04-21T10:29:45.391Z,101731.75
2019-04-21T10:32:21.068Z,101727.36
2019-04-21T10:34:51.030Z,101724.63
2019-04-21T10:37:34.581Z,101723.77
2019-04-21T10:39:57.724Z,101717.73
2019-04-21T10:42:29.553Z,101714.17
2019-04-21T10:45:01.495Z,101713.98
2019-04-21T10:47:34.517Z,101701.53
2019-04-21T10:50:11.232Z,101697.80
2019-04-21T10:53:02.906Z,101696.03
2019-04-21T10:55:53.318Z,101694.02
2019-04-21T10:58:10.825Z,101691.63
2019-04-21T11:00:46.067Z,101677.95
2019-04-21T11:03:36.912Z,101679.01
2019-04-21T11:06:12.710Z,101671.14
2019-04-21T11:08:48.887Z,101671.38
2019-04-21T11:11:19.515Z,101667.73
2019-04-21T11:13:52.530Z,101664.81
2019-04-21T11:16:24.539Z,101650.80
2019-04-21T11:18:57.802Z,101651.38
2019-04-21T11:21:31.129Z,101654.77
2019-04-21T11:24:03.950Z,101644.18
2019-04-21T11:26:36.050Z,101643.39
2019-04-21T11:29:08.004Z,101637.31
2019-04-21T11:31:41.034Z,101634.81
2019-04-21T11:34:13.510Z,101639.09
2019-04-21T11:36:45.959Z,101632.58
2019-04-21T11:39:35.300Z,101636.70
2019-04-21T11:41:55.781Z,101632.28
2019-04-21T11:44:28.916Z,101624.79
2019-04-21T11:47:02.550Z,101635.93
2019-04-21T11:49:34.828Z,101619.94
2019-04-21T11:52:07.076Z,101614.22
2019-04-21T11:54:38.802Z,101618.80
2019-04-21T11:57:15.196Z,101609.63
2019-04-21T11:59:44.167Z,101607.52
2019-04-21T12:02:17.269Z,101609.17
2019-04-21T12:04:51.626Z,101607.73
2019-04-21T12:07:23.455Z,101607.02
2019-04-21T12:09:55.521Z,101605.42
2019-04-21T12:12:27.547Z,101590.00
2019-04-21T12:14:59.928Z,101584.85
2019-04-21T12:17:32.098Z,101581.87
2019-04-21T12:20:06.467Z,101578.16
2019-04-21T12:22:39.115Z,101580.88
2019-04-21T12:25:13.854Z,101565.59
2019-04-21T12:27:45.780Z,101564.12
2019-04-21T12:30:19.758Z,101560.74
2019-04-21T12:33:02.383Z,101560.70
2019-04-21T12:35:35.599Z,101550.97
2019-04-21T12:38:08.794Z,101543.08
2019-04-21T12:40:40.754Z,101543.86
2019-04-21T12:43:12.659Z,101538.54
2019-04-21T12:45:44.621Z,101535.45
2019-04-21T12:48:17.924Z,101529.19
2019-04-21T12:50:49.954Z,101520.39
2019-04-21T12:53:23.405Z,101521.52
2019-04-21T12:55:55.815Z,101516.62
2019-04-21T12:58:29.088Z,101514.45
2019-04-21T13:01:01.040Z,101509.05
2019-04-21T13:03:34.098Z,101514.45
2019-04-21T13:06:07.490Z,101509.05
2019-04-21T13:08:51.877Z,101500.91
2019-04-21T13:11:13.211Z,101494.58
2019-04-21T13:13:45.968Z,101496.85
2019-04-21T13:16:19.143Z,101493.62
2019-04-21T13:18:51.299Z,101484.51
2019-04-21T13:21:24.270Z,101478.44
2019-04-21T13:23:56.901Z,101475.25
2019-04-21T13:26:37.345Z,101479.36
2019-04-21T13:29:02.754Z,101474.89
2019-04-21T13:31:36.149Z,101474.36
2019-04-21T13:34:08.338Z,101466.06
2019-04-21T13:36:41.447Z,101456.22
2019-04-21T13:42:07.598Z,101448.61
2019-04-21T13:44:30.957Z,101452.28
2019-04-21T13:47:03.081Z,101449.04
2019-04-21T13:49:35.154Z,101441.41
2019-04-21T13:52:07.145Z,101437.14
2019-04-21T13:54:39.868Z,101441.42
2019-04-21T13:57:12.511Z,101437.77
2019-04-21T13:59:44.537Z,101428.08
2019-04-21T14:02:16.447Z,101433.51
2019-04-21T14:04:49.645Z,101422.66
2019-04-21T14:07:21.764Z,101409.77
2019-04-21T14:09:59.656Z,101407.11
2019-04-21T14:12:28.106Z,101407.11
2019-04-21T14:15:00.144Z,101393.06
2019-04-21T14:17:32.864Z,101400.56
2019-04-21T14:20:07.266Z,101392.66
2019-04-21T14:22:40.046Z,101383.02
2019-04-21T14:25:12.151Z,101391.59
2019-04-21T14:27:45.791Z,101380.98
2019-04-21T14:30:18.684Z,101375.45
2019-04-21T14:32:51.757Z,101373.35
2019-04-21T14:35:25.181Z,101374.64
2019-04-21T14:37:58.190Z,101377.91
2019-04-21T14:40:33.288Z,101382.04
2019-04-21T14:43:03.946Z,101367.89
2019-04-21T14:45:40.799Z,101365.80
2019-04-21T14:48:21.252Z,101357.86
2019-04-21T14:51:00.468Z,101361.99
2019-04-21T14:53:34.087Z,101356.62
2019-04-21T14:56:07.172Z,101350.57
2019-04-21T14:58:39.259Z,101348.63
2019-04-21T15:01:11.284Z,101347.80
2019-04-21T15:03:43.756Z,101343.91
2019-04-21T15:06:15.773Z,101342.52
2019-04-21T15:08:49.079Z,101348.34
2019-04-21T15:11:22.166Z,101339.79
2019-04-21T15:13:53.965Z,101340.30
2019-04-21T15:16:26.890Z,101325.76
2019-04-21T15:18:59.066Z,101317.12
2019-04-21T15:21:31.324Z,101326.95
2019-04-21T15:24:04.518Z,101321.31
2019-04-21T15:26:37.966Z,101316.81
2019-04-21T15:29:10.790Z,101313.39
2019-04-21T15:31:44.741Z,101305.44
2019-04-21T15:34:17.463Z,101304.50
2019-04-21T15:36:50.329Z,101314.87
2019-04-21T15:39:23.530Z,101304.17
2019-04-21T15:41:56.690Z,101299.82
2019-04-21T15:44:28.452Z,101292.48
2019-04-21T15:47:00.243Z,101294.66
2019-04-21T15:49:56.981Z,101285.44
2019-04-21T15:52:23.054Z,101284.33
2019-04-21T15:54:57.005Z,101279.34
2019-04-21T15:57:42.716Z,101274.39
2019-04-21T16:00:32.341Z,101274.39
2019-04-21T16:03:04.582Z,101272.84
2019-04-21T16:05:37.119Z,101269.59
2019-04-21T16:08:10.137Z,101271.73
2019-04-21T16:10:50.163Z,101264.92
2019-04-21T16:13:16.105Z,101260.36
2019-04-21T16:15:50.452Z,101256.80
2019-04-21T16:18:22.606Z,101251.37
2019-04-21T16:20:55.778Z,101252.02
2019-04-21T16:23:28.658Z,101242.41
2019-04-21T16:26:02.445Z,101248.50
2019-04-21T16:28:35.179Z,101242.80
2019-04-21T16:31:07.119Z,101240.66
2019-04-21T16:33:38.971Z,101245.47
2019-04-21T16:36:12.901Z,101240.70
2019-04-21T16:38:44.510Z,101245.53
2019-04-21T16:41:16.284Z,101247.22
2019-04-21T16:43:49.256Z,101240.37
2019-04-21T16:46:21.231Z,101240.94
2019-04-21T16:48:53.783Z,101229.42
2019-04-21T16:51:26.416Z,101234.50
2019-04-21T16:54:00.140Z,101231.41
2019-04-21T16:56:33.687Z,101223.28
2019-04-21T16:59:08.548Z,101224.15
2019-04-21T17:01:40.720Z,101222.78
2019-04-21T17:04:12.824Z,101223.20
2019-04-21T17:06:45.040Z,101223.11
2019-04-21T17:09:17.071Z,101214.97
2019-04-21T17:11:52.332Z,101213.17
2019-04-21T17:14:37.088Z,101209.55
2019-04-21T17:17:20.494Z,101205.01
2019-04-21T17:19:37.916Z,101205.85
2019-04-21T17:22:04.077Z,101205.80
2019-04-21T17:24:35.973Z,101206.66
2019-04-21T17:27:09.029Z,101203.39
2019-04-21T17:29:41.068Z,101206.91
2019-04-21T17:32:14.199Z,101208.18
2019-04-21T17:34:47.642Z,101214.42
2019-04-21T17:37:22.229Z,101212.80
2019-04-21T17:39:54.510Z,101209.52
2019-04-21T17:42:34.477Z,101213.80
2019-04-21T17:45:01.301Z,101213.66
2019-04-21T17:47:44.892Z,101209.41
2019-04-21T17:50:11.737Z,101213.27
2019-04-21T17:52:50.519Z,101213.11
2019-04-21T17:55:28.281Z,101218.33
2019-04-21T17:58:11.593Z,101218.93
2019-04-21T18:03:40.399Z,101214.38
2019-04-21T18:06:00.838Z,101209.70
2019-04-21T18:08:37.102Z,101211.68
2019-04-21T18:11:01.199Z,101211.32
2019-04-21T18:13:26.598Z,101219.95
2019-04-21T18:16:11.009Z,101225.14
2019-04-21T18:18:32.920Z,101228.04
2019-04-21T18:21:14.444Z,101228.68
2019-04-21T18:23:57.414Z,101229.87
2019-04-21T18:26:35.471Z,101231.05
2019-04-21T18:28:57.715Z,101227.70
2019-04-21T18:31:33.818Z,101231.87
2019-04-21T18:34:26.144Z,101234.20
2019-04-21T18:36:59.714Z,101234.65
2019-04-21T18:39:49.556Z,101239.71
2019-04-21T18:42:31.297Z,101247.06
2019-04-21T18:45:34.089Z,101247.61
2019-04-21T18:47:53.904Z,101249.20
2019-04-21T18:50:41.776Z,101250.39
2019-04-21T18:53:41.436Z,101254.94
2019-04-21T18:56:04.896Z,101256.75
2019-04-21T18:58:32.669Z,101258.66
2019-04-21T19:01:11.754Z,101262.93
2019-04-21T19:03:43.110Z,101256.28
2019-04-21T19:06:18.825Z,101257.06
2019-04-21T19:09:07.712Z,101259.03
2019-04-21T19:11:32.860Z,101258.20
2019-04-21T19:17:04.338Z,101259.55
2019-04-21T19:22:04.624Z,101256.01
2019-04-21T19:24:54.979Z,101258.89
2019-04-21T19:27:15.660Z,101259.84
2019-04-21T19:29:57.255Z,101264.14
2019-04-21T19:32:21.483Z,101261.52
2019-04-21T19:34:39.856Z,101264.38
2019-04-21T19:37:13.425Z,101266.95
2019-04-21T19:39:53.940Z,101271.52
2019-04-21T19:42:25.512Z,101265.11
2019-04-21T19:45:08.894Z,101273.28
2019-04-21T19:47:44.960Z,101276.38
2019-04-21T19:50:19.776Z,101276.42
2019-04-21T19:52:41.088Z,101276.75
2019-04-21T19:55:04.177Z,101271.81
2019-04-21T19:57:36.718Z,101285.08
2019-04-21T20:00:11.513Z,101282.38
2019-04-21T20:02:44.748Z,101285.41
2019-04-21T20:05:29.788Z,101287.18
2019-04-21T20:08:08.327Z,101286.03
2019-04-21T20:10:44.154Z,101284.05
2019-04-21T20:13:26.129Z,101289.02
2019-04-21T20:15:50.956Z,101288.45
2019-04-21T20:18:18.544Z,101290.58
2019-04-21T20:20:39.657Z,101291.16
2019-04-21T20:23:16.991Z,101294.14
2019-04-21T20:25:49.820Z,101299.45
2019-04-21T20:28:34.498Z,101298.76
2019-04-21T20:31:14.708Z,101292.84
2019-04-21T20:33:59.248Z,101291.72
2019-04-21T20:36:25.197Z,101287.33
2019-04-21T20:38:47.081Z,101287.18
2019-04-21T20:41:25.708Z,101288.41
2019-04-21T20:44:02.217Z,101294.84
2019-04-21T20:46:36.806Z,101294.37
2019-04-21T20:49:04.204Z,101294.27
2019-04-21T20:51:40.367Z,101286.27
2019-04-21T20:54:16.008Z,101290.36
2019-04-21T20:56:49.614Z,101291.14
2019-04-21T20:59:19.511Z,101288.36
2019-04-21T21:01:54.938Z,101283.58
2019-04-21T21:04:21.834Z,101285.81
2019-04-21T21:07:09.174Z,101282.05
2019-04-21T21:09:33.777Z,101290.92
2019-04-21T21:12:24.468Z,101287.91
2019-04-21T21:14:40.766Z,101290.48
2019-04-21T21:17:26.952Z,101288.69
2019-04-21T21:19:55.132Z,101288.09
2019-04-21T21:22:14.859Z,101293.08
2019-04-21T21:24:55.771Z,101290.17
2019-04-21T21:27:27.955Z,101295.11
2019-04-21T21:30:00.669Z,101297.78
2019-04-21T21:32:37.382Z,101288.45
2019-04-21T21:35:13.740Z,101293.70
2019-04-21T21:37:52.049Z,101292.68
2019-04-21T21:40:22.191Z,101296.86
2019-04-21T21:42:40.337Z,101292.98
2019-04-21T21:45:15.968Z,101289.41
2019-04-21T21:48:00.997Z,101298.08
2019-04-21T21:50:26.146Z,101298.08
2019-04-21T21:53:00.574Z,101301.56
2019-04-21T21:55:25.603Z,101303.28
2019-04-21T21:58:01.930Z,101299.64
2019-04-21T22:00:37.023Z,101311.03
2019-04-21T22:03:17.850Z,101297.59
2019-04-21T22:05:48.370Z,101297.47
2019-04-21T22:08:16.353Z,101301.25
2019-04-21T22:10:49.390Z,101307.31
2019-04-21T22:13:27.029Z,101309.30
2019-04-21T22:15:59.866Z,101303.80
2019-04-21T22:18:43.120Z,101300.41
2019-04-21T22:21:15.958Z,101300.16
2019-04-21T22:23:43.848Z,101302.69
2019-04-21T22:26:09.574Z,101301.62
2019-04-21T22:28:41.522Z,101302.69
2019-04-21T22:31:20.721Z,101301.63
2019-04-21T22:33:51.281Z,101304.02
2019-04-21T22:36:34.282Z,101304.80
2019-04-21T22:39:13.056Z,101303.71
2019-04-21T22:41:35.753Z,101309.76
2019-04-21T22:44:02.487Z,101305.08
2019-04-21T22:46:36.047Z,101312.73
2019-04-21T22:49:10.696Z,101316.17
2019-04-21T22:51:46.472Z,101310.23
2019-04-21T22:54:20.823Z,101314.89
2019-04-21T22:56:57.120Z,101308.45
2019-04-21T22:59:24.352Z,101314.54
2019-04-21T23:01:55.823Z,101316.53
2019-04-21T23:04:36.833Z,101313.17
2019-04-21T23:07:10.094Z,101316.59
2019-04-21T23:09:37.267Z,101316.50
2019-04-21T23:12:12.453Z,101315.79
2019-04-21T23:14:52.215Z,101309.77
2019-04-21T23:17:32.364Z,101311.38
2019-04-21T23:20:10.506Z,101319.64
2019-04-21T23:22:56.272Z,101313.71
2019-04-21T23:25:18.162Z,101314.36
2019-04-21T23:27:46.996Z,101314.64
2019-04-21T23:30:33.805Z,101311.70
2019-04-21T23:32:50.426Z,101319.87
2019-04-21T23:35:25.391Z,101316.11
2019-04-21T23:37:52.950Z,101323.08
2019-04-21T23:40:25.450Z,101319.80
2019-04-21T23:43:00.144Z,101318.75
2019-04-21T23:45:33.999Z,101314.57
2019-04-21T23:48:18.539Z,101313.47
2019-04-21T23:50:45.916Z,101320.25
2019-04-21T23:53:11.075Z,101320.89
2019-04-21T23:55:43.412Z,101313.17
2019-04-21T23:58:22.216Z,101316.05
